sensor_id;sensor_type;location;lat;lon;timestamp;P1;durP1;ratioP1;P2;durP2;ratioP2
3677;SDS011;1855;50.934;6.958;2022-12-07T00:00:00;27.92;;;25.38;;
3677;SDS011;1855;50.934;6.958;2022-12-07T00:02:26;28.33;;;25.63;;
3677;SDS011;1855;50.934;6.958;2022-12-07T00:04:53;27.73;;;25.13;;
3677;SDS011;1855;50.934;6.958;2022-12-07T00:07:21;28.98;;;26.30;;
3677;SDS011;1855;50.934;6.958;2022-12-07T00:09:48;27.40;;;24.80;;
3677;SDS011;1855;50.934;6.958;2022-12-07T00:12:15;27.02;;;24.42;;
3677;SDS011;1855;50.934;6.958;2022-12-07T00:14:41;26.02;;;23.58;;
3677;SDS011;1855;50.934;6.958;2022-12-07T00:17:08;26.50;;;23.90;;
3677;SDS011;1855;50.934;6.958;2022-12-07T00:19:35;26.40;;;23.90;;
3677;SDS011;1855;50.934;6.958;2022-12-07T00:22:02;27.52;;;25.02;;
3677;SDS011;1855;50.934;6.958;2022-12-07T00:24:30;25.80;;;23.33;;
3677;SDS011;1855;50.934;6.958;2022-12-07T00:26:57;27.60;;;25.02;;
3677;SDS011;1855;50.934;6.958;2022-12-07T00:29:23;26.00;;;23.50;;
3677;SDS011;1855;50.934;6.958;2022-12-07T00:31:50;25.85;;;23.30;;
3677;SDS011;1855;50.934;6.958;2022-12-07T00:34:17;27.33;;;24.92;;
3677;SDS011;1855;50.934;6.958;2022-12-07T00:36:45;27.73;;;25.13;;
3677;SDS011;1855;50.934;6.958;2022-12-07T00:39:13;26.50;;;24.10;;
3677;SDS011;1855;50.934;6.958;2022-12-07T00:41:41;27.05;;;24.55;;
3677;SDS011;1855;50.934;6.958;2022-12-07T00:44:08;25.52;;;23.02;;
3677;SDS011;1855;50.934;6.958;2022-12-07T00:46:34;26.77;;;24.02;;
3677;SDS011;1855;50.934;6.958;2022-12-07T00:49:01;26.52;;;24.13;;
3677;SDS011;1855;50.934;6.958;2022-12-07T00:51:28;26.05;;;23.70;;
3677;SDS011;1855;50.934;6.958;2022-12-07T00:53:55;26.47;;;24.03;;
3677;SDS011;1855;50.934;6.958;2022-12-07T00:56:23;25.95;;;23.55;;
3677;SDS011;1855;50.934;6.958;2022-12-07T00:58:53;25.67;;;23.08;;
3677;SDS011;1855;50.934;6.958;2022-12-07T01:01:21;24.77;;;22.48;;
3677;SDS011;1855;50.934;6.958;2022-12-07T01:03:48;26.40;;;24.00;;
3677;SDS011;1855;50.934;6.958;2022-12-07T01:06:15;26.50;;;24.10;;
3677;SDS011;1855;50.934;6.958;2022-12-07T01:08:43;26.45;;;23.92;;
3677;SDS011;1855;50.934;6.958;2022-12-07T01:11:11;25.75;;;23.35;;
3677;SDS011;1855;50.934;6.958;2022-12-07T01:13:40;27.88;;;25.38;;
3677;SDS011;1855;50.934;6.958;2022-12-07T01:16:09;26.92;;;24.42;;
3677;SDS011;1855;50.934;6.958;2022-12-07T01:18:38;24.73;;;22.63;;
3677;SDS011;1855;50.934;6.958;2022-12-07T01:21:07;25.75;;;23.55;;
3677;SDS011;1855;50.934;6.958;2022-12-07T01:23:35;27.08;;;24.63;;
3677;SDS011;1855;50.934;6.958;2022-12-07T01:26:04;26.25;;;23.90;;
3677;SDS011;1855;50.934;6.958;2022-12-07T01:28:32;26.88;;;24.27;;
3677;SDS011;1855;50.934;6.958;2022-12-07T01:31:00;26.27;;;23.92;;
3677;SDS011;1855;50.934;6.958;2022-12-07T01:33:31;26.70;;;24.20;;
3677;SDS011;1855;50.934;6.958;2022-12-07T01:36:02;25.50;;;23.10;;
3677;SDS011;1855;50.934;6.958;2022-12-07T01:38:31;28.63;;;25.92;;
3677;SDS011;1855;50.934;6.958;2022-12-07T01:40:59;27.50;;;24.90;;
3677;SDS011;1855;50.934;6.958;2022-12-07T01:43:28;26.23;;;23.92;;
3677;SDS011;1855;50.934;6.958;2022-12-07T01:45:56;26.40;;;24.10;;
3677;SDS011;1855;50.934;6.958;2022-12-07T01:48:24;27.47;;;25.03;;
3677;SDS011;1855;50.934;6.958;2022-12-07T01:50:56;27.40;;;24.80;;
3677;SDS011;1855;50.934;6.958;2022-12-07T01:53:30;27.27;;;24.67;;
3677;SDS011;1855;50.934;6.958;2022-12-07T01:55:58;27.07;;;24.67;;
3677;SDS011;1855;50.934;6.958;2022-12-07T01:58:25;28.08;;;25.48;;
3677;SDS011;1855;50.934;6.958;2022-12-07T02:00:52;27.90;;;25.30;;
3677;SDS011;1855;50.934;6.958;2022-12-07T02:03:20;27.35;;;24.75;;
3677;SDS011;1855;50.934;6.958;2022-12-07T02:05:51;28.65;;;25.95;;
3677;SDS011;1855;50.934;6.958;2022-12-07T02:08:21;28.52;;;25.92;;
3677;SDS011;1855;50.934;6.958;2022-12-07T02:10:48;27.98;;;25.38;;
3677;SDS011;1855;50.934;6.958;2022-12-07T02:13:15;29.42;;;26.75;;
3677;SDS011;1855;50.934;6.958;2022-12-07T02:15:59;28.63;;;26.02;;
3677;SDS011;1855;50.934;6.958;2022-12-07T02:18:41;27.73;;;25.13;;
3677;SDS011;1855;50.934;6.958;2022-12-07T02:21:16;28.95;;;26.25;;
3677;SDS011;1855;50.934;6.958;2022-12-07T02:29:39;26.80;;;24.20;;
3677;SDS011;1855;50.934;6.958;2022-12-07T02:32:13;26.80;;;24.40;;
3677;SDS011;1855;50.934;6.958;2022-12-07T02:34:44;27.43;;;24.93;;
3677;SDS011;1855;50.934;6.958;2022-12-07T02:37:18;26.43;;;24.03;;
3677;SDS011;1855;50.934;6.958;2022-12-07T02:39:54;26.95;;;24.55;;
3677;SDS011;1855;50.934;6.958;2022-12-07T02:42:27;26.87;;;24.40;;
3677;SDS011;1855;50.934;6.958;2022-12-07T02:45:01;28.08;;;25.48;;
3677;SDS011;1855;50.934;6.958;2022-12-07T02:47:29;28.63;;;25.93;;
3677;SDS011;1855;50.934;6.958;2022-12-07T02:49:58;26.33;;;24.02;;
3677;SDS011;1855;50.934;6.958;2022-12-07T02:52:24;26.63;;;24.33;;
3677;SDS011;1855;50.934;6.958;2022-12-07T02:54:51;26.83;;;24.52;;
3677;SDS011;1855;50.934;6.958;2022-12-07T02:57:22;26.75;;;24.52;;
3677;SDS011;1855;50.934;6.958;2022-12-07T03:00:03;27.67;;;24.98;;
3677;SDS011;1855;50.934;6.958;2022-12-07T03:02:36;28.60;;;25.90;;
3677;SDS011;1855;50.934;6.958;2022-12-07T03:08:02;30.05;;;27.15;;
3677;SDS011;1855;50.934;6.958;2022-12-07T03:10:35;28.93;;;26.33;;
3677;SDS011;1855;50.934;6.958;2022-12-07T03:13:07;29.10;;;26.30;;
3677;SDS011;1855;50.934;6.958;2022-12-07T03:15:41;28.75;;;26.05;;
3677;SDS011;1855;50.934;6.958;2022-12-07T03:18:13;27.00;;;24.40;;
3677;SDS011;1855;50.934;6.958;2022-12-07T03:20:44;28.48;;;25.88;;
3677;SDS011;1855;50.934;6.958;2022-12-07T03:23:14;28.58;;;25.88;;
3677;SDS011;1855;50.934;6.958;2022-12-07T03:25:48;29.13;;;26.42;;
3677;SDS011;1855;50.934;6.958;2022-12-07T03:28:20;27.30;;;24.50;;
3677;SDS011;1855;50.934;6.958;2022-12-07T03:30:52;27.63;;;25.00;;
3677;SDS011;1855;50.934;6.958;2022-12-07T03:33:24;30.40;;;27.60;;
3677;SDS011;1855;50.934;6.958;2022-12-07T03:35:56;29.05;;;26.25;;
3677;SDS011;1855;50.934;6.958;2022-12-07T03:38:29;29.42;;;26.63;;
3677;SDS011;1855;50.934;6.958;2022-12-07T03:41:01;29.50;;;26.70;;
3677;SDS011;1855;50.934;6.958;2022-12-07T03:43:32;29.25;;;26.55;;
3677;SDS011;1855;50.934;6.958;2022-12-07T03:46:04;29.58;;;26.77;;
3677;SDS011;1855;50.934;6.958;2022-12-07T03:48:42;27.85;;;25.25;;
3677;SDS011;1855;50.934;6.958;2022-12-07T03:51:18;27.52;;;24.85;;
3677;SDS011;1855;50.934;6.958;2022-12-07T03:53:49;28.92;;;26.23;;
3677;SDS011;1855;50.934;6.958;2022-12-07T03:56:19;28.60;;;25.90;;
3677;SDS011;1855;50.934;6.958;2022-12-07T03:58:48;28.15;;;25.45;;
3677;SDS011;1855;50.934;6.958;2022-12-07T04:01:17;27.23;;;24.65;;
3677;SDS011;1855;50.934;6.958;2022-12-07T04:03:44;27.65;;;24.95;;
3677;SDS011;1855;50.934;6.958;2022-12-07T04:06:10;27.40;;;24.90;;
3677;SDS011;1855;50.934;6.958;2022-12-07T04:08:37;27.23;;;24.63;;
3677;SDS011;1855;50.934;6.958;2022-12-07T04:11:04;27.58;;;24.98;;
3677;SDS011;1855;50.934;6.958;2022-12-07T04:13:31;27.90;;;25.20;;
3677;SDS011;1855;50.934;6.958;2022-12-07T04:16:19;27.98;;;25.20;;
3677;SDS011;1855;50.934;6.958;2022-12-07T04:18:46;27.00;;;24.50;;
3677;SDS011;1855;50.934;6.958;2022-12-07T04:21:13;27.20;;;24.50;;
3677;SDS011;1855;50.934;6.958;2022-12-07T04:23:39;27.30;;;24.60;;
3677;SDS011;1855;50.934;6.958;2022-12-07T04:26:06;27.95;;;25.38;;
3677;SDS011;1855;50.934;6.958;2022-12-07T04:28:33;26.07;;;23.57;;
3677;SDS011;1855;50.934;6.958;2022-12-07T04:31:00;26.90;;;24.30;;
3677;SDS011;1855;50.934;6.958;2022-12-07T04:33:28;27.48;;;24.77;;
3677;SDS011;1855;50.934;6.958;2022-12-07T04:35:55;28.00;;;25.50;;
3677;SDS011;1855;50.934;6.958;2022-12-07T04:38:21;27.73;;;25.13;;
3677;SDS011;1855;50.934;6.958;2022-12-07T04:40:48;29.15;;;26.40;;
3677;SDS011;1855;50.934;6.958;2022-12-07T04:43:15;28.83;;;26.17;;
3677;SDS011;1855;50.934;6.958;2022-12-07T04:45:44;28.35;;;25.75;;
3677;SDS011;1855;50.934;6.958;2022-12-07T04:48:12;29.20;;;26.20;;
3677;SDS011;1855;50.934;6.958;2022-12-07T04:50:40;28.95;;;26.25;;
3677;SDS011;1855;50.934;6.958;2022-12-07T04:53:07;27.80;;;25.23;;
3677;SDS011;1855;50.934;6.958;2022-12-07T04:55:33;29.15;;;26.25;;
3677;SDS011;1855;50.934;6.958;2022-12-07T04:58:00;28.20;;;25.50;;
3677;SDS011;1855;50.934;6.958;2022-12-07T05:00:27;29.42;;;26.70;;
3677;SDS011;1855;50.934;6.958;2022-12-07T05:02:54;29.27;;;26.58;;
3677;SDS011;1855;50.934;6.958;2022-12-07T05:05:20;29.25;;;26.33;;
3677;SDS011;1855;50.934;6.958;2022-12-07T05:07:48;28.42;;;25.58;;
3677;SDS011;1855;50.934;6.958;2022-12-07T05:10:15;28.65;;;26.02;;
3677;SDS011;1855;50.934;6.958;2022-12-07T05:12:42;27.98;;;25.27;;
3677;SDS011;1855;50.934;6.958;2022-12-07T05:15:10;28.10;;;25.40;;
3677;SDS011;1855;50.934;6.958;2022-12-07T05:17:37;28.33;;;25.73;;
3677;SDS011;1855;50.934;6.958;2022-12-07T05:20:04;27.70;;;25.20;;
3677;SDS011;1855;50.934;6.958;2022-12-07T05:22:32;29.83;;;27.13;;
3677;SDS011;1855;50.934;6.958;2022-12-07T05:25:00;25.92;;;23.63;;
3677;SDS011;1855;50.934;6.958;2022-12-07T05:27:27;28.52;;;25.83;;
3677;SDS011;1855;50.934;6.958;2022-12-07T05:29:54;28.38;;;25.77;;
3677;SDS011;1855;50.934;6.958;2022-12-07T05:32:20;27.48;;;25.08;;
3677;SDS011;1855;50.934;6.958;2022-12-07T05:34:47;28.55;;;25.95;;
3677;SDS011;1855;50.934;6.958;2022-12-07T05:37:14;28.58;;;25.88;;
3677;SDS011;1855;50.934;6.958;2022-12-07T05:39:41;29.27;;;26.27;;
3677;SDS011;1855;50.934;6.958;2022-12-07T05:42:10;28.27;;;25.52;;
3677;SDS011;1855;50.934;6.958;2022-12-07T05:44:40;27.60;;;24.92;;
3677;SDS011;1855;50.934;6.958;2022-12-07T05:47:08;30.30;;;27.60;;
3677;SDS011;1855;50.934;6.958;2022-12-07T05:49:35;30.00;;;27.17;;
3677;SDS011;1855;50.934;6.958;2022-12-07T05:52:02;30.00;;;27.00;;
3677;SDS011;1855;50.934;6.958;2022-12-07T05:54:29;28.75;;;26.00;;
3677;SDS011;1855;50.934;6.958;2022-12-07T05:56:56;30.92;;;27.88;;
3677;SDS011;1855;50.934;6.958;2022-12-07T05:59:25;31.40;;;28.40;;
3677;SDS011;1855;50.934;6.958;2022-12-07T06:01:53;28.80;;;26.00;;
3677;SDS011;1855;50.934;6.958;2022-12-07T06:04:21;29.00;;;26.10;;
3677;SDS011;1855;50.934;6.958;2022-12-07T06:06:49;30.30;;;27.45;;
3677;SDS011;1855;50.934;6.958;2022-12-07T06:09:16;28.80;;;26.00;;
3677;SDS011;1855;50.934;6.958;2022-12-07T06:11:44;30.35;;;27.25;;
3677;SDS011;1855;50.934;6.958;2022-12-07T06:14:29;31.52;;;28.33;;
3677;SDS011;1855;50.934;6.958;2022-12-07T06:16:56;31.40;;;28.40;;
3677;SDS011;1855;50.934;6.958;2022-12-07T06:19:23;30.60;;;27.60;;
3677;SDS011;1855;50.934;6.958;2022-12-07T06:21:50;31.67;;;28.38;;
3677;SDS011;1855;50.934;6.958;2022-12-07T06:24:17;31.30;;;28.08;;
3677;SDS011;1855;50.934;6.958;2022-12-07T06:26:44;33.40;;;29.93;;
3677;SDS011;1855;50.934;6.958;2022-12-07T06:29:12;34.95;;;31.27;;
3677;SDS011;1855;50.934;6.958;2022-12-07T06:31:40;35.75;;;31.65;;
3677;SDS011;1855;50.934;6.958;2022-12-07T06:34:09;36.03;;;32.30;;
3677;SDS011;1855;50.934;6.958;2022-12-07T06:36:37;37.13;;;33.22;;
3677;SDS011;1855;50.934;6.958;2022-12-07T06:39:05;36.78;;;32.88;;
3677;SDS011;1855;50.934;6.958;2022-12-07T06:41:34;35.90;;;32.30;;
3677;SDS011;1855;50.934;6.958;2022-12-07T06:44:00;35.38;;;31.85;;
3677;SDS011;1855;50.934;6.958;2022-12-07T06:46:27;36.67;;;32.97;;
3677;SDS011;1855;50.934;6.958;2022-12-07T06:48:55;35.33;;;31.83;;
3677;SDS011;1855;50.934;6.958;2022-12-07T06:51:22;35.00;;;31.60;;
3677;SDS011;1855;50.934;6.958;2022-12-07T06:53:49;33.97;;;30.67;;
3677;SDS011;1855;50.934;6.958;2022-12-07T06:56:16;33.97;;;30.50;;
3677;SDS011;1855;50.934;6.958;2022-12-07T06:58:42;33.45;;;29.95;;
3677;SDS011;1855;50.934;6.958;2022-12-07T07:01:09;33.75;;;30.45;;
3677;SDS011;1855;50.934;6.958;2022-12-07T07:03:37;32.72;;;29.50;;
3677;SDS011;1855;50.934;6.958;2022-12-07T07:06:06;33.47;;;30.07;;
3677;SDS011;1855;50.934;6.958;2022-12-07T07:08:34;33.05;;;29.75;;
3677;SDS011;1855;50.934;6.958;2022-12-07T07:11:04;33.08;;;29.58;;
3677;SDS011;1855;50.934;6.958;2022-12-07T07:13:32;32.85;;;29.63;;
3677;SDS011;1855;50.934;6.958;2022-12-07T07:15:59;34.42;;;30.83;;
3677;SDS011;1855;50.934;6.958;2022-12-07T07:18:26;33.83;;;30.40;;
3677;SDS011;1855;50.934;6.958;2022-12-07T07:20:54;33.50;;;30.08;;
3677;SDS011;1855;50.934;6.958;2022-12-07T07:23:22;33.35;;;30.05;;
3677;SDS011;1855;50.934;6.958;2022-12-07T07:25:49;34.22;;;30.63;;
3677;SDS011;1855;50.934;6.958;2022-12-07T07:28:16;34.03;;;30.55;;
3677;SDS011;1855;50.934;6.958;2022-12-07T07:30:43;32.27;;;29.23;;
3677;SDS011;1855;50.934;6.958;2022-12-07T07:33:10;31.02;;;27.88;;
3677;SDS011;1855;50.934;6.958;2022-12-07T07:35:37;31.52;;;28.13;;
3677;SDS011;1855;50.934;6.958;2022-12-07T07:38:05;28.60;;;25.80;;
3677;SDS011;1855;50.934;6.958;2022-12-07T07:40:33;31.80;;;28.73;;
3677;SDS011;1855;50.934;6.958;2022-12-07T07:43:00;32.23;;;29.23;;
3677;SDS011;1855;50.934;6.958;2022-12-07T07:45:27;32.20;;;28.80;;
3677;SDS011;1855;50.934;6.958;2022-12-07T07:47:54;30.17;;;27.40;;
3677;SDS011;1855;50.934;6.958;2022-12-07T07:50:21;33.42;;;30.23;;
3677;SDS011;1855;50.934;6.958;2022-12-07T07:52:48;30.63;;;27.63;;
3677;SDS011;1855;50.934;6.958;2022-12-07T07:55:15;32.40;;;29.20;;
3677;SDS011;1855;50.934;6.958;2022-12-07T07:57:43;31.65;;;28.35;;
3677;SDS011;1855;50.934;6.958;2022-12-07T08:00:10;30.75;;;27.75;;
3677;SDS011;1855;50.934;6.958;2022-12-07T08:02:39;31.52;;;28.42;;
3677;SDS011;1855;50.934;6.958;2022-12-07T08:05:08;30.27;;;27.42;;
3677;SDS011;1855;50.934;6.958;2022-12-07T08:07:35;30.83;;;27.73;;
3677;SDS011;1855;50.934;6.958;2022-12-07T08:10:03;31.17;;;28.27;;
3677;SDS011;1855;50.934;6.958;2022-12-07T08:12:31;32.05;;;28.95;;
3677;SDS011;1855;50.934;6.958;2022-12-07T08:15:02;29.50;;;26.60;;
3677;SDS011;1855;50.934;6.958;2022-12-07T08:17:29;29.08;;;26.48;;
3677;SDS011;1855;50.934;6.958;2022-12-07T08:19:56;30.13;;;27.02;;
3677;SDS011;1855;50.934;6.958;2022-12-07T08:22:23;28.60;;;25.80;;
3677;SDS011;1855;50.934;6.958;2022-12-07T08:24:50;30.33;;;27.38;;
3677;SDS011;1855;50.934;6.958;2022-12-07T08:27:16;28.60;;;25.98;;
3677;SDS011;1855;50.934;6.958;2022-12-07T08:29:43;27.40;;;24.70;;
3677;SDS011;1855;50.934;6.958;2022-12-07T08:32:11;27.50;;;24.80;;
3677;SDS011;1855;50.934;6.958;2022-12-07T08:34:38;25.05;;;22.60;;
3677;SDS011;1855;50.934;6.958;2022-12-07T08:37:05;25.30;;;22.77;;
3677;SDS011;1855;50.934;6.958;2022-12-07T08:39:32;26.63;;;23.95;;
3677;SDS011;1855;50.934;6.958;2022-12-07T08:41:59;26.48;;;23.58;;
3677;SDS011;1855;50.934;6.958;2022-12-07T08:44:25;27.70;;;24.70;;
3677;SDS011;1855;50.934;6.958;2022-12-07T08:46:53;25.02;;;22.52;;
3677;SDS011;1855;50.934;6.958;2022-12-07T08:49:25;26.42;;;23.65;;
3677;SDS011;1855;50.934;6.958;2022-12-07T08:51:58;24.55;;;22.17;;
3677;SDS011;1855;50.934;6.958;2022-12-07T08:54:25;22.88;;;20.67;;
3677;SDS011;1855;50.934;6.958;2022-12-07T08:56:53;23.52;;;21.23;;
3677;SDS011;1855;50.934;6.958;2022-12-07T08:59:22;23.02;;;20.83;;
3677;SDS011;1855;50.934;6.958;2022-12-07T09:01:49;23.75;;;21.60;;
3677;SDS011;1855;50.934;6.958;2022-12-07T09:04:16;21.80;;;19.80;;
3677;SDS011;1855;50.934;6.958;2022-12-07T09:06:44;23.10;;;20.90;;
3677;SDS011;1855;50.934;6.958;2022-12-07T09:09:11;21.40;;;19.20;;
3677;SDS011;1855;50.934;6.958;2022-12-07T09:11:39;21.80;;;19.60;;
3677;SDS011;1855;50.934;6.958;2022-12-07T09:14:06;19.20;;;17.30;;
3677;SDS011;1855;50.934;6.958;2022-12-07T09:16:33;18.80;;;17.10;;
3677;SDS011;1855;50.934;6.958;2022-12-07T09:18:59;18.73;;;17.02;;
3677;SDS011;1855;50.934;6.958;2022-12-07T09:21:26;18.40;;;16.80;;
3677;SDS011;1855;50.934;6.958;2022-12-07T09:23:54;17.57;;;15.80;;
3677;SDS011;1855;50.934;6.958;2022-12-07T09:26:21;18.27;;;16.38;;
3677;SDS011;1855;50.934;6.958;2022-12-07T09:28:48;16.67;;;15.07;;
3677;SDS011;1855;50.934;6.958;2022-12-07T09:31:15;17.48;;;15.88;;
3677;SDS011;1855;50.934;6.958;2022-12-07T09:33:42;16.30;;;14.80;;
3677;SDS011;1855;50.934;6.958;2022-12-07T09:36:09;17.00;;;15.30;;
3677;SDS011;1855;50.934;6.958;2022-12-07T09:38:36;16.50;;;14.90;;
3677;SDS011;1855;50.934;6.958;2022-12-07T09:41:07;17.30;;;15.70;;
3677;SDS011;1855;50.934;6.958;2022-12-07T09:43:34;16.55;;;15.05;;
3677;SDS011;1855;50.934;6.958;2022-12-07T09:46:05;16.08;;;14.57;;
3677;SDS011;1855;50.934;6.958;2022-12-07T09:48:32;15.70;;;14.05;;
3677;SDS011;1855;50.934;6.958;2022-12-07T09:51:01;15.85;;;14.25;;
3677;SDS011;1855;50.934;6.958;2022-12-07T09:53:30;16.23;;;14.63;;
3677;SDS011;1855;50.934;6.958;2022-12-07T09:56:00;14.63;;;13.23;;
3677;SDS011;1855;50.934;6.958;2022-12-07T09:58:30;16.02;;;14.60;;
3677;SDS011;1855;50.934;6.958;2022-12-07T10:00:59;16.27;;;14.75;;
3677;SDS011;1855;50.934;6.958;2022-12-07T10:03:31;14.80;;;13.30;;
3677;SDS011;1855;50.934;6.958;2022-12-07T10:05:58;15.18;;;13.68;;
3677;SDS011;1855;50.934;6.958;2022-12-07T10:08:25;14.90;;;13.47;;
3677;SDS011;1855;50.934;6.958;2022-12-07T10:10:53;13.63;;;12.00;;
3677;SDS011;1855;50.934;6.958;2022-12-07T10:13:22;14.40;;;12.93;;
3677;SDS011;1855;50.934;6.958;2022-12-07T10:16:00;12.95;;;11.50;;
3677;SDS011;1855;50.934;6.958;2022-12-07T10:18:28;12.20;;;11.00;;
3677;SDS011;1855;50.934;6.958;2022-12-07T10:21:03;12.40;;;11.10;;
3677;SDS011;1855;50.934;6.958;2022-12-07T10:23:39;12.47;;;11.20;;
3677;SDS011;1855;50.934;6.958;2022-12-07T10:26:19;12.43;;;11.20;;
3677;SDS011;1855;50.934;6.958;2022-12-07T10:28:53;11.65;;;10.45;;
3677;SDS011;1855;50.934;6.958;2022-12-07T10:31:22;12.13;;;10.77;;
3677;SDS011;1855;50.934;6.958;2022-12-07T10:33:50;11.45;;;10.35;;
3677;SDS011;1855;50.934;6.958;2022-12-07T10:36:19;11.52;;;10.40;;
3677;SDS011;1855;50.934;6.958;2022-12-07T10:38:49;13.20;;;11.77;;
3677;SDS011;1855;50.934;6.958;2022-12-07T10:41:18;12.07;;;10.93;;
3677;SDS011;1855;50.934;6.958;2022-12-07T10:43:46;10.90;;;9.80;;
3677;SDS011;1855;50.934;6.958;2022-12-07T10:46:23;13.00;;;10.82;;
3677;SDS011;1855;50.934;6.958;2022-12-07T10:49:03;14.80;;;11.52;;
3677;SDS011;1855;50.934;6.958;2022-12-07T10:51:40;11.80;;;10.60;;
3677;SDS011;1855;50.934;6.958;2022-12-07T10:54:15;11.63;;;10.43;;
3677;SDS011;1855;50.934;6.958;2022-12-07T10:56:57;11.43;;;10.32;;
3677;SDS011;1855;50.934;6.958;2022-12-07T11:02:32;12.48;;;11.18;;
3677;SDS011;1855;50.934;6.958;2022-12-07T11:05:16;10.50;;;9.50;;
3677;SDS011;1855;50.934;6.958;2022-12-07T11:07:51;10.43;;;9.45;;
3677;SDS011;1855;50.934;6.958;2022-12-07T11:10:29;11.15;;;10.05;;
3677;SDS011;1855;50.934;6.958;2022-12-07T11:13:11;11.10;;;10.00;;
3677;SDS011;1855;50.934;6.958;2022-12-07T11:15:53;9.65;;;8.75;;
3677;SDS011;1855;50.934;6.958;2022-12-07T11:18:31;10.65;;;9.07;;
3677;SDS011;1855;50.934;6.958;2022-12-07T11:21:07;9.65;;;8.65;;
3677;SDS011;1855;50.934;6.958;2022-12-07T11:23:45;11.05;;;8.93;;
3677;SDS011;1855;50.934;6.958;2022-12-07T11:26:20;11.38;;;8.35;;
3677;SDS011;1855;50.934;6.958;2022-12-07T11:29:08;12.52;;;8.40;;
3677;SDS011;1855;50.934;6.958;2022-12-07T11:31:52;10.00;;;9.00;;
3677;SDS011;1855;50.934;6.958;2022-12-07T11:34:30;11.77;;;8.77;;
3677;SDS011;1855;50.934;6.958;2022-12-07T11:37:05;11.65;;;8.65;;
3677;SDS011;1855;50.934;6.958;2022-12-07T11:39:39;9.38;;;8.48;;
3677;SDS011;1855;50.934;6.958;2022-12-07T11:42:12;9.05;;;8.10;;
3677;SDS011;1855;50.934;6.958;2022-12-07T11:44:45;9.60;;;7.65;;
3677;SDS011;1855;50.934;6.958;2022-12-07T11:47:17;9.20;;;8.30;;
3677;SDS011;1855;50.934;6.958;2022-12-07T11:49:51;9.60;;;8.23;;
3677;SDS011;1855;50.934;6.958;2022-12-07T11:52:25;9.45;;;8.20;;
3677;SDS011;1855;50.934;6.958;2022-12-07T11:54:58;9.32;;;8.43;;
3677;SDS011;1855;50.934;6.958;2022-12-07T11:57:29;10.02;;;8.50;;
3677;SDS011;1855;50.934;6.958;2022-12-07T12:00:03;8.82;;;7.90;;
3677;SDS011;1855;50.934;6.958;2022-12-07T12:02:33;8.70;;;7.72;;
3677;SDS011;1855;50.934;6.958;2022-12-07T12:05:07;11.07;;;9.15;;
3677;SDS011;1855;50.934;6.958;2022-12-07T12:07:41;10.95;;;9.15;;
3677;SDS011;1855;50.934;6.958;2022-12-07T12:10:14;9.82;;;8.27;;
3677;SDS011;1855;50.934;6.958;2022-12-07T12:12:56;9.70;;;8.70;;
3677;SDS011;1855;50.934;6.958;2022-12-07T12:15:43;10.30;;;9.30;;
3677;SDS011;1855;50.934;6.958;2022-12-07T12:18:22;11.57;;;9.63;;
3677;SDS011;1855;50.934;6.958;2022-12-07T12:21:04;11.95;;;10.80;;
3677;SDS011;1855;50.934;6.958;2022-12-07T12:23:35;13.00;;;11.10;;
3677;SDS011;1855;50.934;6.958;2022-12-07T12:26:07;13.95;;;11.60;;
3677;SDS011;1855;50.934;6.958;2022-12-07T12:28:41;14.00;;;11.32;;
3677;SDS011;1855;50.934;6.958;2022-12-07T12:31:29;13.23;;;11.27;;
3677;SDS011;1855;50.934;6.958;2022-12-07T12:34:01;14.27;;;11.75;;
3677;SDS011;1855;50.934;6.958;2022-12-07T12:36:44;13.82;;;12.15;;
3677;SDS011;1855;50.934;6.958;2022-12-07T12:39:12;12.45;;;11.15;;
3677;SDS011;1855;50.934;6.958;2022-12-07T12:41:59;13.65;;;11.90;;
3677;SDS011;1855;50.934;6.958;2022-12-07T12:44:38;14.73;;;11.48;;
3677;SDS011;1855;50.934;6.958;2022-12-07T12:50:15;13.40;;;12.10;;
3677;SDS011;1855;50.934;6.958;2022-12-07T12:52:50;13.63;;;12.10;;
3677;SDS011;1855;50.934;6.958;2022-12-07T12:55:21;12.60;;;11.30;;
3677;SDS011;1855;50.934;6.958;2022-12-07T12:58:31;14.23;;;11.43;;
3677;SDS011;1855;50.934;6.958;2022-12-07T13:07:12;11.48;;;10.32;;
3677;SDS011;1855;50.934;6.958;2022-12-07T13:10:01;13.20;;;10.70;;
3677;SDS011;1855;50.934;6.958;2022-12-07T13:12:29;11.27;;;10.10;;
3677;SDS011;1855;50.934;6.958;2022-12-07T13:14:57;10.70;;;9.60;;
3677;SDS011;1855;50.934;6.958;2022-12-07T13:23:22;11.20;;;9.40;;
3677;SDS011;1855;50.934;6.958;2022-12-07T13:26:08;10.35;;;9.15;;
3677;SDS011;1855;50.934;6.958;2022-12-07T13:28:43;10.90;;;9.80;;
3677;SDS011;1855;50.934;6.958;2022-12-07T13:34:01;10.60;;;9.50;;
3677;SDS011;1855;50.934;6.958;2022-12-07T13:36:30;12.07;;;9.40;;
3677;SDS011;1855;50.934;6.958;2022-12-07T13:39:10;11.10;;;10.00;;
3677;SDS011;1855;50.934;6.958;2022-12-07T13:41:44;10.32;;;9.23;;
3677;SDS011;1855;50.934;6.958;2022-12-07T13:44:15;11.27;;;9.90;;
3677;SDS011;1855;50.934;6.958;2022-12-07T13:46:46;11.35;;;10.25;;
3677;SDS011;1855;50.934;6.958;2022-12-07T13:49:17;11.48;;;10.48;;
3677;SDS011;1855;50.934;6.958;2022-12-07T13:51:46;10.90;;;9.80;;
3677;SDS011;1855;50.934;6.958;2022-12-07T13:54:13;11.70;;;10.50;;
3677;SDS011;1855;50.934;6.958;2022-12-07T13:56:41;12.57;;;10.33;;
3677;SDS011;1855;50.934;6.958;2022-12-07T13:59:12;11.57;;;9.90;;
3677;SDS011;1855;50.934;6.958;2022-12-07T14:01:40;9.85;;;8.80;;
3677;SDS011;1855;50.934;6.958;2022-12-07T14:07:00;11.25;;;8.95;;
3677;SDS011;1855;50.934;6.958;2022-12-07T14:09:28;9.07;;;8.27;;
3677;SDS011;1855;50.934;6.958;2022-12-07T14:11:56;9.60;;;8.30;;
3677;SDS011;1855;50.934;6.958;2022-12-07T14:14:25;10.25;;;8.90;;
3677;SDS011;1855;50.934;6.958;2022-12-07T14:16:55;9.70;;;8.80;;
3677;SDS011;1855;50.934;6.958;2022-12-07T14:19:46;11.15;;;8.07;;
3677;SDS011;1855;50.934;6.958;2022-12-07T14:22:28;9.20;;;8.25;;
3677;SDS011;1855;50.934;6.958;2022-12-07T14:24:58;10.25;;;9.05;;
3677;SDS011;1855;50.934;6.958;2022-12-07T14:27:49;10.93;;;9.23;;
3677;SDS011;1855;50.934;6.958;2022-12-07T14:30:22;10.80;;;9.70;;
3677;SDS011;1855;50.934;6.958;2022-12-07T14:32:51;10.60;;;9.50;;
3677;SDS011;1855;50.934;6.958;2022-12-07T14:35:19;10.70;;;9.70;;
3677;SDS011;1855;50.934;6.958;2022-12-07T14:37:47;11.13;;;9.57;;
3677;SDS011;1855;50.934;6.958;2022-12-07T14:40:16;11.03;;;9.93;;
3677;SDS011;1855;50.934;6.958;2022-12-07T14:42:44;10.70;;;9.70;;
3677;SDS011;1855;50.934;6.958;2022-12-07T14:45:13;11.43;;;10.20;;
3677;SDS011;1855;50.934;6.958;2022-12-07T14:47:43;12.18;;;10.88;;
3677;SDS011;1855;50.934;6.958;2022-12-07T14:50:11;11.48;;;10.27;;
3677;SDS011;1855;50.934;6.958;2022-12-07T14:52:39;12.27;;;11.03;;
3677;SDS011;1855;50.934;6.958;2022-12-07T14:55:12;12.00;;;10.90;;
3677;SDS011;1855;50.934;6.958;2022-12-07T14:57:40;11.88;;;10.68;;
3677;SDS011;1855;50.934;6.958;2022-12-07T15:00:08;11.15;;;10.00;;
3677;SDS011;1855;50.934;6.958;2022-12-07T15:02:39;11.75;;;10.65;;
3677;SDS011;1855;50.934;6.958;2022-12-07T15:05:07;12.63;;;11.13;;
3677;SDS011;1855;50.934;6.958;2022-12-07T15:07:34;12.25;;;10.95;;
3677;SDS011;1855;50.934;6.958;2022-12-07T15:10:01;12.98;;;11.50;;
3677;SDS011;1855;50.934;6.958;2022-12-07T15:12:29;13.40;;;12.00;;
3677;SDS011;1855;50.934;6.958;2022-12-07T15:14:55;12.50;;;11.20;;
3677;SDS011;1855;50.934;6.958;2022-12-07T15:17:22;13.10;;;10.80;;
3677;SDS011;1855;50.934;6.958;2022-12-07T15:19:49;13.17;;;11.90;;
3677;SDS011;1855;50.934;6.958;2022-12-07T15:22:17;11.40;;;10.30;;
3677;SDS011;1855;50.934;6.958;2022-12-07T15:24:44;11.82;;;10.73;;
3677;SDS011;1855;50.934;6.958;2022-12-07T15:27:10;13.30;;;11.90;;
3677;SDS011;1855;50.934;6.958;2022-12-07T15:29:37;13.60;;;12.20;;
3677;SDS011;1855;50.934;6.958;2022-12-07T15:32:04;11.32;;;9.90;;
3677;SDS011;1855;50.934;6.958;2022-12-07T15:34:31;5.90;;;5.40;;
3677;SDS011;1855;50.934;6.958;2022-12-07T15:36:58;7.27;;;5.87;;
3677;SDS011;1855;50.934;6.958;2022-12-07T15:39:26;6.00;;;5.40;;